aviador You're here:

LFRM Decoded Metar

LE MANS in FRANCE
Report Time2017-12-11 22:30:00
UTC Time2017-12-11 22:57:53
Flight Rules vfr VFR
Wind290° at 06 kt
W.Decomp.*RWY 02: 0.1 kt HW 6 kt LCW
W.Rank290° ranks 28
Current wind is above 290° avg. (5.8)
Visibility9999 m
Phenomena:N/A
Clouds:Few 025 Hf
Expected CloudBase > 1,200 ft AGL from Temp-Dew spread
CeilingNone
Temp05°C (ISA -10)
Dew Point02°C (81% RH)
AAT1.2°C
QNH1000 hPa
Density Alt-453 ft
Elevation171 ft
Report Wrong Elevation
Raw Report
LFRM 112230Z AUTO 29006KT 250V330 9999 FEW025 05/02 Q1000=

Extra information for LFRM:More info

Metar Taf Metar & Taf Last 4 Metars F.Rules Stats Wind Profile Meteogram Temp Stats Airport Information Weather charts Add Link Nearby VenuesMetar ALERT Operation Metar Decoded Social comments